Latest METARs, TAFs and NOTAMs for LTFJ


---------------------------------------------------------------------------
	(OBSERVATIONS)
LTFJ 230350Z 05003KT 9999 FEW010 17/16 Q1016 NOSIG RMK RWY24
    03001KT=
LTFJ 230320Z 05004KT CAVOK 16/15 Q1016 NOSIG RMK RWY24 03002KT=
LTFJ 230250Z 05004KT CAVOK 17/16 Q1016 NOSIG RMK RWY24 07002KT=
LTFJ 230220Z 03002KT CAVOK 17/16 Q1015 NOSIG RMK RWY24 VRB02KT=
LTFJ 230150Z 03004KT CAVOK 17/16 Q1015 NOSIG RMK RWY24 02002KT=
LTFJ 230120Z 06002KT CAVOK 17/16 Q1015 NOSIG RMK RWY24 36002KT=
---------------------------------------------------------------------------
	(FC)
Sorry, FC For LTFJ Not Found
---------------------------------------------------------------------------
	(TERMINAL AREA FORECAST)
LTFJ 222240Z 2300/2324 VRB02KT CAVOK PROB40
    TEMPO 2303/2305 4000 BR SCT008
    BECMG 2305/2308 SCT035
    BECMG 2308/2311 03012KT
    BECMG 2312/2315 CAVOK=
---------------------------------------------------------------------------
	(NOTAMS)


LTFJ A0093/17 1-INDIVIDUAL SCHEDULED FLIGHT PERMIT APPLICATIONS
    FOR ISTANBUL SABIHA GOKCEN AIRPORT SHALL NOT BE MADE. 2-IN
    WINTER SCHEDULE PERIOD 2016/2017, AIRLINES THAT OPERATE SCHEDULED
    FLIGHTS SHALL APPLY TO FLIGHT PERMITS NOT EXCEEDING THE TOTAL
    NUMBER OF FLIGHT PERMITS AND PERFORMED FLIGHTS IN WINTER
    SCHEDULE PERIOD 2015/2016. 3-DUE TO INSUFFICIENT CAPACITY
    AT ISTANBUL SABIHA GOKCEN AIRPORT,THE ADDITIONAL FLIGHT PERMITS
    EXCEPT THE RIGHTS ESTABLISHED UNDER BILATERAL AGREEMENTS
    SHALL NOT BE GRANTED FOR THE FOREIGN AIRLINES THAT OPERATE
    SCHEDULED FLIGHTS. 4-FOR THE SCHEDULED ISOLATED FLIGHTS EXCEPT
    THE ABOVE PROVISIONS,SLOT APPLICATION TO SLOT COORDINATION
    CENTER OF THE DIRECTORATE GENERAL OF STATES AIRPORTS ADMINISTRATIONS
    SHALL BE MADE AS PRIORITY. AFTER RECIEVING SLOT, THE APPLICATION
    SHALL BE EVALUATED BY DIRECTORATE GENERAL OF CIVIL AVIATION.
    5-FLIGHTS OTHER THAN SCHEDULED FLIGHTS(CHARTER,GENERAL AVIATION
    AND SIMILAR) SHALL BE OPERATED ON NON-BUSY HOURS OF AERODROME
    AND APPROPRIATE TO THEIR SLOT TIME. 6-AIRWAYS SHALL PREPARE
    2017 SUMMER SCHEDULE PERIOD PLANNINGS ACCORDING TO THEIR
    SLOTS AND SHALL SELL TICKETS AFTER CONFIRMATION. 06 JAN 12:20
    2017 UNTIL 01 NOV 12:20 2017 ESTIMATED. CREATED: 06 JAN 13:06
    2017

LTFJ A1791/17 SABIHA GOKCEN AERODROME, RWY 06/24 WILL BE CLOSED
    TO DEPARTURE AND ARRIVAL TRAFFIC TEMPORARILY FOR RWY MAINTENANCE
    AND REPAIRS AS FOLLOWS DAYS AND TIMES:DATES AND TIMES BETWEEN
    MAR OCT 29 2017- MAR 25 2018 (EXC BTN DEC 31 2017 2300 UTC
    AND JAN 02 2018 0330 UTC) MON:0000-0200 UTC, 2200-2359 UTC
    TUE:0000-0330 UTC, 2200-2359 UTC WED:0000-0330 UTC, 2200-2359
    UTC THU:0000-0330 UTC, 2200-2359 UTC FRI:0000-0330 UTC, 2300-2359
    UTC SAT:0000-0200 UTC, 2200-2359 UTC SUN:0000-0330 UTC, 2300-2359
    UTC NOTE:PILOTS OF DEPARTING AIRCRAFT SHALL REQUEST START
    UP AND PUSH-BACK CLEARANCE BEFORE 30 MINUTES FROM RWY CLOSURE
    TIME NOT REGARDING SLOT TIME. OTHERWISE THEY SHALL NOT BE
    ALLOWED TO START UP AND PUSH-BACH. 29 OCT 23:00 2017 UNTIL
    25 MAR 03:30 2018. CREATED: 11 APR 13:39 2017

LTFJ A2548/17 PAINT WORKS ON THE ALL APRONS WILL BE DONE. PLS
    ALL TRAFFIC AVICE INSTRUCTIONS. 25 MAY 08:35 2017 UNTIL 25
    AUG 12:00 2017. CREATED: 25 MAY 08:38 2017

LTFJ A2867/17 THERE WILL BE GRASS CUTTING BY THE RWY 06/24 AND
    TWYS ADVICE ATC INST. 12 JUN 05:00 2017 UNTIL 12 SEP 14:00
    2017. CREATED: 09 JUN 11:57 2017

LTFJ A3037/17 THERE ARE CONSTRUCTION WORK 80 M. AWAY FROM HOLDING
    BAY AT NORTH DIRECTION , 220 M. AWAY FROM HOLDING BAY AT
    SOUTHWEST DIRECTION , 75 M. AWAY FROM HOLDING BAY AT NORTHEAST
    DIRECTION . ADVICE ATC INSTRUCTION. 22 JUN 07:12 2017 UNTIL
    20 OCT 09:00 2017. CREATED: 22 JUN 07:14 2017

LTFJ A3039/17 HOLDING BAY CLOSED TO TRAFFIC. 22 JUN 07:18 2017
    UNTIL 20 OCT 09:00 2017. CREATED: 22 JUN 07:19 2017

LTFJ A3061/17 SABIHA GOKCEN AERODROME, RWY 06/24 WILL BE CLOSED
    TO DEPARTURE AND ARRIVAL TRAFFIC TEMPORARILY FOR RWY MAINTENANCE
    AND REPAIRS AS FOLLOWS DAYS AND TIMES: DATES AND TIMES BETWEEN
    JUL 03-AUG 24 2017 AND SEP 06-OCT 26 2017: MON:2230-2359
    UTC TUE:0000-0230 UTC, 2130-2359 UTC WED:0000-0330 UTC, 2130-2359
    UTC THU:0000-0310 UTC NOTE:PILOTS OF DEPARTING AIRCRAFT SHALL
    REQUEST START UP AND PUSH-BACK CLEARANCE BEFORE 45 MINUTES
    FROM RWY CLOSURE TIME NOT REGARDING SLOT TIME. OTHERWISE
    THEY SHALL NOT BE ALLOWED TO START UP AND PUSH-BACH. 03 JUL
    22:30 2017 UNTIL 26 OCT 03:10 2017. CREATED: 23 JUN 08:11
    2017

LTFJ A3084/17 HOLDING BAY LIGHTING SYSTEM U/S. 27 JUN 22:50 2017
    UNTIL 27 AUG 23:30 2017. CREATED: 27 JUN 22:59 2017

LTFJ A3103/17 THERE ARE SURFACE IRREGULARITIES ON RWY 06/24,
    DECREASING RIDE QUALITY. 28 JUN 14:00 2017 UNTIL 25 DEC 14:00
    2017. CREATED: 28 JUN 14:21 2017

LTFJ A3192/17 TWYS E,G,H,K,L,M,U,J STOPBAR LIGHTS EVERY SECOND
    WORKING. 05 JUL 07:15 2017 UNTIL 05 SEP 11:00 2017. CREATED:
    05 JUL 07:20 2017

LTFJ A3384/17 SPECIAL PARKING (OVERSIZE PARKING) SHALL BE MADE
    ON PARKING AREA 110. 14 JUL 12:00 2017 UNTIL 15 JAN 12:00
    2018. CREATED: 14 JUL 11:50 2017

LTFJ A3502/17 PRESENCE PAINTING WORKS ON RWY 06/24. NOTE: PILOTS
    MUST BE CAUTIOUS. 21 JUL 06:15 2017 UNTIL 21 SEP 13:00 2017.
    CREATED: 21 JUL 06:15 2017

LTFJ A3503/17 PRESENCE PAINTING WORKS ON ALL TWYS. NOTE: PILOTS
    MUST BE CAUTIOUS. 21 JUL 06:15 2017 UNTIL 21 SEP 13:00 2017.
    CREATED: 21 JUL 06:17 2017

LTFJ A3589/17 ACFT STANDS NUMBERED 13,14 AND 15 CLOSED TO TFC.
    -DUE TO CONST WORK-. 26 JUL 09:17 2017 UNTIL 25 AUG 13:00
    2017. CREATED: 26 JUL 09:18 2017

LTFJ A3749/17 TRIGGER NOTAM-PERM AIRAC AIP AMDT 08/17 EFFECTIVE
    DATE 17 AUG 2017 CHANGES OF OTHER LIGHTING SECONDARY POWER
    SUPPLY,AD 2 LTFJ ADC,AD 2 LTFJ STAR-2. 17 AUG 00:00 2017
    UNTIL 30 AUG 23:59 2017. CREATED: 03 AUG 08:08 2017

LTFJ A3795/17 PRESENCE OF TIRE REMNANT ON TOUCH DOWN ZONE RWY
    06/24. 04 AUG 13:45 2017 UNTIL 21 SEP 12:00 2017. CREATED:
    04 AUG 13:43 2017

LTFJ A3917/17 PRESENCE CONTROLED MOVING CONST VEHICLES AND HOLES
    EDGES OF TWY D AND TWY J COORDINATES GIVEN AS BELOW: 405345.89N0291744.65E
    405340.35N0291731.36E 405345.47N0291745.05E 405338.85N0291732.39E
    405344.65N0291742.86E 405340.36N0291728.43E 405344.83N0291741.81E
    405337.97N0291730.07E TRAFFICS SHOULD FOLLOW TWY CENTERLINE
    AND USE LOW SPEED. 10 AUG 09:38 2017 UNTIL 08 SEP 12:00 2017.
    CREATED: 10 AUG 09:39 2017

LTFJ A4114/17 AERODROME WIP AT BELOW COORDINATES: 405418.13N0291913.80E
    405419.96N0291912.95E 405419.97N0291918.86E 405421.53N0291917.24E
    PRESENCE HOLES AND CONTROLLED MOBILE VEHICLES AT THE SHOULDER
    AND SHOULDER SIDE OF TWY D AND TWY S. TRAFFICS MUST FOLLOW
    TWY CENTERLINE LINES WITH LOWER SPEED. 18 AUG 13:05 2017
    UNTIL 28 AUG 13:00 2017. CREATED: 18 AUG 14:04 2017

LTFJ A4148/17 TWYS D, H, J, Q, R, AND S CENTERLINE LIGHTS OUT
    OF SERVICE. 22 AUG 16:15 2017 UNTIL 28 AUG 16:15 2017. CREATED:
    22 AUG 16:27 2017

LTFJ G4334/13 SABIHA GOKCEN HAVALIMANI'NDAKI RNAV (GNSS) SID
    VE STAR'LARIN UYGULANMA GEREKSINIMLERI ILE ILGILI HUSUSLAR
    ASAGIDAKI GIBIDIR: THESE PROCEDURES ARE MANDATORY FOR P-RNAV
    APPROVED AIRCRAFT. THEREFORE, THE P-RNAV APPROVED AIRCRAFT
    ARRIVING/DEPARTING TO/FROM LTFJ ARE REQUIRED TO FLIGHT PLAN
    OR SUBMIT A MODIFICATION MESSAGE (CHG) CONCERNING THE ROUTE
    SECTION OF THEIR RPLS AS DESCRIBED BELOW: 1-GNSS BASED RNAV
    STARS FOR LTFJ STARTS FROM THE WAYPOINTS/FIXES, DESIGNATED
    AS TETSA, PAZAR, OTSAN, ELVON, DEKEK, TURKO, GELBU AND ATVEP.
    THESE WAYPOINTS/FIXES SHALL BE THE LAST ELEMENT OF THE FLIGHT
    PLANNED ROUTES FOR THE P-RNAV APPROVED AIRCRAFT AS ILLUSTRATED
    BELOW: -A FLIGHT PLANNED ROUTE FOR THE ARRIVALS TO LTFJ VIA
    RIXEN, EXAMPLE:..... RIXEN UN616 TETSA 2- GNSS BASED RNAV
    SIDS FOR LTFJ ENDS AT THE WAYPOINTS/FIXES, DESIGNATED AS
    MARMA, GOLDO, VADEN, IBLAL, MAKOL,MOPIN, PIMAV AND EDASA.
    THESE WAYPOINTS/FIXES SHALL BE THE FIRST ELEMENT OF THE FLIGHT
    PLANNED ROUTES FOR THE P-RNAV APPROVED AIRCRAFT AS ILLUSTRATED
    BELOW: -A FLIGHT PLANNED ROUTE FOR THE DEPARTURES FROM LTFJ
    VIA MAKOL, EXAMPLE:MAKOL UN617. 17 OCT 00:00 2013 UNTIL PERM.
    CREATED: 07 JAN 07:12 2015

LTFJ G4445/14 ISTANBUL SABIHA GOKCEN HAVALIMANI: AIP SUP 06/13
    IPTAL EDILMISTIR. 18 SEP 14:52 2014 UNTIL PERM. CREATED:
    07 JAN 07:16 2015

---------------------------------------------------------------------------